Terminal Aerodrome Forecast
Issued by NWS

Home | Current Version | Previous Version | Text Only | Print | Product List | Glossary On
Versions: 1 2 3 4 5 6 7 8 9 10 11 12 13 14 15 16 17 18 19 20 21 22 23 24 25 26 27 28 29 30 31 32 33 34 35 36 37 38 39 40 41 42 43 44 45 46 47 48 49 50
000
FTUS45 KSLC 180541
TAFHCR
TAF
KHCR 180541Z 1806/1906 VRB04KT 1SM -SN BR BKN006 OVC010
     FM180800 VRB04KT 4SM BR VCSH SCT010 BKN030
     FM181600 VRB04KT P6SM BKN030
     FM181800 29005KT P6SM SCT030 BKN060
     FM190100 02006KT P6SM SCT030 BKN080=

USA.gov is the U.S. government's official web portal to all federal, state and local government web resources and services.